Time,TemperatureF,DewpointF,PressureIn,WindDirection,WindDirectionDegrees,WindSpeedMPH,WindSpeedGustMPH,Humidity,HourlyPrecipIn,Conditions,Clouds,dailyrainin,SoftwareType,DateUTC
2013-03-26 00:21:00,32.1,31.0,29.68,SW,233,0.0,0.0,96,0.00,,,0.00,weatherlink.com 1.10,2013-03-26 04:21:00,
2013-03-26 00:36:00,32.8,32.0,29.68,West,276,0.0,1.0,97,0.00,,,0.00,weatherlink.com 1.10,2013-03-26 04:36:00,
2013-03-26 01:06:00,32.7,32.0,29.69,WSW,246,0.0,1.0,97,0.00,,,0.00,weatherlink.com 1.10,2013-03-26 05:06:00,
2013-03-26 01:25:00,32.5,32.0,29.70,West,276,0.0,1.0,97,0.00,,,0.00,weatherlink.com 1.10,2013-03-26 05:25:00,
2013-03-26 01:36:00,32.5,32.0,29.70,West,277,0.0,3.0,97,0.00,,,0.00,weatherlink.com 1.10,2013-03-26 05:36:00,
2013-03-26 01:51:00,32.3,32.0,29.71,West,278,0.0,0.0,97,0.00,,,0.00,weatherlink.com 1.10,2013-03-26 05:51:00,
2013-03-26 02:22:00,32.0,31.0,29.71,WNW,284,0.0,3.0,97,0.00,,,0.00,weatherlink.com 1.10,2013-03-26 06:22:00,
2013-03-26 02:37:00,32.5,32.0,29.72,West,264,0.0,4.0,97,0.00,,,0.00,weatherlink.com 1.10,2013-03-26 06:37:00,
2013-03-26 02:51:00,32.8,32.0,29.72,West,277,0.0,1.0,97,0.00,,,0.00,weatherlink.com 1.10,2013-03-26 06:51:00,
2013-03-26 03:07:00,33.0,32.0,29.72,West,264,1.0,1.0,97,0.00,,,0.00,weatherlink.com 1.10,2013-03-26 07:07:00,
2013-03-26 03:22:00,33.2,33.0,29.72,West,280,0.0,0.0,97,0.00,,,0.00,weatherlink.com 1.10,2013-03-26 07:22:00,
2013-03-26 03:52:00,32.9,32.0,29.72,West,265,0.0,2.0,97,0.00,,,0.00,weatherlink.com 1.10,2013-03-26 07:52:00,
2013-03-26 04:07:00,33.4,33.0,29.72,West,266,1.0,3.0,97,0.00,,,0.00,weatherlink.com 1.10,2013-03-26 08:07:00,
2013-03-26 04:22:00,33.6,33.0,29.72,WSW,243,0.0,2.0,97,0.00,,,0.00,weatherlink.com 1.10,2013-03-26 08:22:00,
2013-03-26 04:37:00,33.6,33.0,29.72,West,264,1.0,3.0,97,0.00,,,0.00,weatherlink.com 1.10,2013-03-26 08:37:00,
2013-03-26 04:52:00,33.4,32.0,29.73,WSW,249,2.0,3.0,96,0.00,,,0.00,weatherlink.com 1.10,2013-03-26 08:52:00,
2013-03-26 05:07:00,33.0,32.0,29.73,West,276,0.0,4.0,96,0.00,,,0.00,weatherlink.com 1.10,2013-03-26 09:07:00,
2013-03-26 05:22:00,32.8,32.0,29.74,WSW,250,1.0,3.0,96,0.00,,,0.00,weatherlink.com 1.10,2013-03-26 09:22:00,
2013-03-26 05:37:00,32.4,31.0,29.74,West,267,0.0,1.0,96,0.00,,,0.00,weatherlink.com 1.10,2013-03-26 09:37:00,
2013-03-26 05:52:00,32.0,31.0,29.75,West,277,0.0,1.0,96,0.00,,,0.00,weatherlink.com 1.10,2013-03-26 09:52:00,
2013-03-26 06:07:00,31.8,31.0,29.75,West,274,0.0,1.0,96,0.00,,,0.00,weatherlink.com 1.10,2013-03-26 10:07:00,
2013-03-26 06:37:00,31.6,31.0,29.77,West,276,1.0,3.0,96,0.00,,,0.00,weatherlink.com 1.10,2013-03-26 10:37:00,
2013-03-26 06:52:00,31.6,31.0,29.77,West,280,0.0,1.0,96,0.00,,,0.00,weatherlink.com 1.10,2013-03-26 10:52:00,
2013-03-26 07:07:00,31.7,31.0,29.78,NNW,342,0.0,1.0,96,0.00,,,0.00,weatherlink.com 1.10,2013-03-26 11:07:00,
2013-03-26 07:22:00,31.8,31.0,29.78,West,269,0.0,1.0,97,0.00,,,0.00,weatherlink.com 1.10,2013-03-26 11:22:00,
2013-03-26 07:52:00,33.1,32.0,29.80,West,273,0.0,2.0,97,0.00,,,0.00,weatherlink.com 1.10,2013-03-26 11:52:00,
2013-03-26 08:07:00,34.1,33.0,29.80,WNW,284,1.0,5.0,97,0.00,,,0.00,weatherlink.com 1.10,2013-03-26 12:07:00,
2013-03-26 08:22:00,35.1,34.0,29.80,West,280,4.0,5.0,96,0.00,,,0.00,weatherlink.com 1.10,2013-03-26 12:22:00,
2013-03-26 08:37:00,36.2,34.0,29.81,WNW,300,2.0,10.0,93,0.00,,,0.00,weatherlink.com 1.10,2013-03-26 12:37:00,
2013-03-26 08:52:00,37.5,35.0,29.81,West,281,4.0,10.0,90,0.00,,,0.00,weatherlink.com 1.10,2013-03-26 12:52:00,
2013-03-26 09:07:00,38.5,36.0,29.81,West,277,1.0,7.0,89,0.01,,,0.01,weatherlink.com 1.10,2013-03-26 13:07:00,
2013-03-26 09:22:00,39.6,36.0,29.81,WSW,249,6.0,7.0,87,0.01,,,0.01,weatherlink.com 1.10,2013-03-26 13:22:00,
2013-03-26 09:37:00,40.4,36.0,29.82,WNW,297,1.0,7.0,85,0.01,,,0.01,weatherlink.com 1.10,2013-03-26 13:37:00,
2013-03-26 09:53:00,41.6,37.0,29.82,NE,34,8.0,8.0,82,0.02,,,0.02,weatherlink.com 1.10,2013-03-26 13:53:00,
2013-03-26 10:08:00,42.3,36.0,29.82,WSW,257,1.0,7.0,79,0.01,,,0.02,weatherlink.com 1.10,2013-03-26 14:08:00,
2013-03-26 10:23:00,42.7,36.0,29.82,North,360,2.0,9.0,78,0.01,,,0.02,weatherlink.com 1.10,2013-03-26 14:23:00,
2013-03-26 10:38:00,43.6,37.0,29.83,ENE,78,1.0,8.0,77,0.02,,,0.03,weatherlink.com 1.10,2013-03-26 14:38:00,
2013-03-26 10:53:00,44.7,37.0,29.83,West,277,8.0,8.0,75,0.01,,,0.03,weatherlink.com 1.10,2013-03-26 14:53:00,
2013-03-26 11:08:00,45.3,36.0,29.83,NE,56,1.0,6.0,71,0.02,,,0.04,weatherlink.com 1.10,2013-03-26 15:08:00,
2013-03-26 11:23:00,45.5,37.0,29.83,North,354,0.0,10.0,71,0.02,,,0.04,weatherlink.com 1.10,2013-03-26 15:23:00,
2013-03-26 11:38:00,46.9,38.0,29.84,WNW,290,1.0,9.0,71,0.01,,,0.04,weatherlink.com 1.10,2013-03-26 15:38:00,
2013-03-26 11:53:00,46.8,37.0,29.83,NE,48,1.0,10.0,68,0.01,,,0.04,weatherlink.com 1.10,2013-03-26 15:53:00,
2013-03-26 12:08:00,47.0,36.0,29.84,WNW,284,1.0,13.0,65,0.00,,,0.04,weatherlink.com 1.10,2013-03-26 16:08:00,
2013-03-26 12:23:00,47.4,35.0,29.84,ENE,64,2.0,8.0,62,0.00,,,0.04,weatherlink.com 1.10,2013-03-26 16:23:00,
2013-03-26 12:38:00,47.4,35.0,29.84,WNW,295,2.0,13.0,62,0.00,,,0.04,weatherlink.com 1.10,2013-03-26 16:38:00,
2013-03-26 12:53:00,48.5,35.0,29.83,WNW,284,1.0,12.0,60,0.00,,,0.04,weatherlink.com 1.10,2013-03-26 16:53:00,
2013-03-26 13:08:00,47.6,33.0,29.83,WNW,290,4.0,8.0,57,0.00,,,0.04,weatherlink.com 1.10,2013-03-26 17:08:00,
2013-03-26 13:23:00,47.9,33.0,29.83,WNW,293,2.0,9.0,56,0.00,,,0.04,weatherlink.com 1.10,2013-03-26 17:23:00,
2013-03-26 13:38:00,47.3,33.0,29.83,WSW,243,1.0,7.0,57,0.00,,,0.04,weatherlink.com 1.10,2013-03-26 17:38:00,
2013-03-26 13:53:00,47.3,33.0,29.84,NNE,20,1.0,9.0,57,0.00,,,0.04,weatherlink.com 1.10,2013-03-26 17:53:00,
2013-03-26 14:08:00,47.6,31.0,29.84,WNW,293,3.0,8.0,53,0.00,,,0.04,weatherlink.com 1.10,2013-03-26 18:08:00,
2013-03-26 14:23:00,47.0,32.0,29.84,West,277,2.0,8.0,57,0.00,,,0.04,weatherlink.com 1.10,2013-03-26 18:23:00,
2013-03-26 14:38:00,46.4,33.0,29.84,East,88,1.0,5.0,59,0.00,,,0.04,weatherlink.com 1.10,2013-03-26 18:38:00,
2013-03-26 14:53:00,47.2,32.0,29.84,WNW,295,4.0,8.0,56,0.00,,,0.04,weatherlink.com 1.10,2013-03-26 18:53:00,
2013-03-26 15:08:00,47.7,32.0,29.84,NE,44,3.0,9.0,55,0.00,,,0.04,weatherlink.com 1.10,2013-03-26 19:08:00,
2013-03-26 15:23:00,47.8,31.0,29.84,WNW,290,2.0,9.0,53,0.00,,,0.04,weatherlink.com 1.10,2013-03-26 19:23:00,
2013-03-26 15:38:00,48.9,32.0,29.83,WNW,294,3.0,9.0,52,0.00,,,0.04,weatherlink.com 1.10,2013-03-26 19:38:00,
2013-03-26 15:53:00,48.7,31.0,29.83,WNW,294,3.0,4.0,51,0.00,,,0.04,weatherlink.com 1.10,2013-03-26 19:53:00,
2013-03-26 16:08:00,48.0,31.0,29.83,WNW,288,2.0,8.0,52,0.00,,,0.04,weatherlink.com 1.10,2013-03-26 20:08:00,
2013-03-26 16:23:00,47.5,31.0,29.84,West,280,2.0,9.0,53,0.00,,,0.04,weatherlink.com 1.10,2013-03-26 20:23:00,
2013-03-26 16:38:00,47.9,31.0,29.84,West,278,3.0,7.0,52,0.00,,,0.04,weatherlink.com 1.10,2013-03-26 20:38:00,
2013-03-26 16:53:00,48.6,31.0,29.84,WSW,238,3.0,7.0,52,0.00,,,0.04,weatherlink.com 1.10,2013-03-26 20:53:00,
2013-03-26 17:08:00,49.1,31.0,29.84,WNW,283,2.0,7.0,50,0.00,,,0.04,weatherlink.com 1.10,2013-03-26 21:08:00,
2013-03-26 17:23:00,48.1,30.0,29.85,NNE,32,3.0,8.0,50,0.00,,,0.04,weatherlink.com 1.10,2013-03-26 21:23:00,
2013-03-26 17:38:00,48.0,30.0,29.85,WNW,293,2.0,5.0,50,0.00,,,0.04,weatherlink.com 1.10,2013-03-26 21:38:00,
2013-03-26 17:55:00,47.6,31.0,29.85,WNW,293,1.0,5.0,52,0.00,,,0.04,weatherlink.com 1.10,2013-03-26 21:55:00,
2013-03-26 18:08:00,47.3,32.0,29.86,West,278,0.0,3.0,55,0.00,,,0.04,weatherlink.com 1.10,2013-03-26 22:08:00,
2013-03-26 18:23:00,47.4,31.0,29.86,West,260,0.0,3.0,54,0.00,,,0.04,weatherlink.com 1.10,2013-03-26 22:23:00,
2013-03-26 18:38:00,46.6,31.0,29.86,WSW,255,0.0,2.0,54,0.00,,,0.04,weatherlink.com 1.10,2013-03-26 22:38:00,
2013-03-26 18:54:00,45.9,30.0,29.87,WSW,242,0.0,3.0,54,0.00,,,0.04,weatherlink.com 1.10,2013-03-26 22:54:00,
2013-03-26 19:09:00,44.9,31.0,29.87,WSW,239,0.0,2.0,58,0.00,,,0.04,weatherlink.com 1.10,2013-03-26 23:09:00,
2013-03-26 19:24:00,43.1,31.0,29.88,SW,232,0.0,0.0,62,0.00,,,0.04,weatherlink.com 1.10,2013-03-26 23:24:00,
2013-03-26 19:39:00,41.6,32.0,29.89,SW,232,0.0,0.0,68,0.00,,,0.04,weatherlink.com 1.10,2013-03-26 23:39:00,
2013-03-26 19:54:00,41.6,32.0,29.89,WSW,246,0.0,1.0,70,0.00,,,0.04,weatherlink.com 1.10,2013-03-26 23:54:00,
2013-03-26 20:09:00,42.0,31.0,29.90,West,267,0.0,2.0,65,0.00,,,0.04,weatherlink.com 1.10,2013-03-27 00:09:00,
2013-03-26 20:24:00,41.9,30.0,29.91,WNW,287,0.0,1.0,63,0.00,,,0.04,weatherlink.com 1.10,2013-03-27 00:24:00,
2013-03-26 20:39:00,41.3,30.0,29.91,WNW,287,0.0,0.0,65,0.00,,,0.04,weatherlink.com 1.10,2013-03-27 00:39:00,
2013-03-26 20:54:00,40.9,31.0,29.92,WNW,287,0.0,0.0,68,0.00,,,0.04,weatherlink.com 1.10,2013-03-27 00:54:00,
2013-03-26 21:09:00,40.8,32.0,29.92,WNW,291,0.0,0.0,70,0.00,,,0.04,weatherlink.com 1.10,2013-03-27 01:09:00,
2013-03-26 21:24:00,41.4,32.0,29.93,WSW,245,0.0,2.0,69,0.00,,,0.04,weatherlink.com 1.10,2013-03-27 01:24:00,
2013-03-26 21:39:00,41.9,32.0,29.93,WSW,246,0.0,1.0,67,0.00,,,0.04,weatherlink.com 1.10,2013-03-27 01:39:00,
2013-03-26 21:54:00,41.1,32.0,29.94,WNW,295,0.0,0.0,69,0.00,,,0.04,weatherlink.com 1.10,2013-03-27 01:54:00,
2013-03-26 22:09:00,39.9,32.0,29.95,WNW,295,0.0,0.0,73,0.00,,,0.04,weatherlink.com 1.10,2013-03-27 02:09:00,
2013-03-26 22:24:00,39.0,32.0,29.95,WNW,291,0.0,1.0,75,0.00,,,0.04,weatherlink.com 1.10,2013-03-27 02:24:00,
2013-03-26 22:39:00,39.1,31.0,29.94,WNW,285,0.0,0.0,74,0.00,,,0.04,weatherlink.com 1.10,2013-03-27 02:39:00,
2013-03-26 22:54:00,40.0,31.0,29.95,WSW,240,0.0,1.0,71,0.00,,,0.04,weatherlink.com 1.10,2013-03-27 02:54:00,
2013-03-26 23:09:00,41.0,31.0,29.95,West,280,0.0,2.0,68,0.00,,,0.04,weatherlink.com 1.10,2013-03-27 03:09:00,
2013-03-26 23:24:00,41.4,31.0,29.95,WSW,238,0.0,3.0,66,0.00,,,0.04,weatherlink.com 1.10,2013-03-27 03:24:00,
2013-03-26 23:39:00,42.7,30.0,29.95,West,277,3.0,13.0,62,0.00,,,0.04,weatherlink.com 1.10,2013-03-27 03:39:00,
2013-03-26 23:54:00,43.5,30.0,29.95,WNW,288,2.0,7.0,60,0.00,,,0.04,weatherlink.com 1.10,2013-03-27 03:54:00,